Time;durP1;ratioP1;P1;durP2;ratioP2;P2;SDS_P1;SDS_P2;PMS_P1;PMS_P2;Temp;Humidity;BMP_temperature;BMP_pressure;BME280_temperature;BME280_humidity;BME280_pressure;Samples;Min_cycle;Max_cycle;Signal;HPM_P1;HPM_P2
2020/12/25 00:01:08;;;;;;;0.10;0.10;;;4.20;99.90;;;;;;4939615;29;20185;-79
2020/12/25 00:03:34;;;;;;;0.10;0.10;;;4.10;99.90;;;;;;4940311;29;20187;-79
2020/12/25 00:06:00;;;;;;;0.30;0.30;;;4.10;99.90;;;;;;4939334;29;20202;-79
2020/12/25 00:08:26;;;;;;;0.10;0.10;;;4.10;99.90;;;;;;4939646;29;20208;-79
2020/12/25 00:10:53;;;;;;;0.10;0.10;;;4.20;99.90;;;;;;4938847;29;20182;-80
2020/12/25 00:13:19;;;;;;;0.20;0.20;;;4.00;99.90;;;;;;4943742;29;20178;-79
2020/12/25 00:15:46;;;;;;;0.13;0.13;;;4.10;99.90;;;;;;4949141;28;20210;-79
2020/12/25 00:18:12;;;;;;;1.33;0.20;;;4.00;99.90;;;;;;4942603;29;20178;-79
2020/12/25 00:20:38;;;;;;;0.30;0.30;;;4.00;99.90;;;;;;4943673;29;20190;-79
2020/12/25 00:23:04;;;;;;;0.30;0.20;;;3.90;99.90;;;;;;4942065;29;20723;-79
2020/12/25 00:25:30;;;;;;;0.10;0.10;;;3.90;99.90;;;;;;4942755;29;20201;-79
2020/12/25 00:27:56;;;;;;;0.10;0.10;;;3.90;99.90;;;;;;4943437;29;20707;-79
2020/12/25 00:30:22;;;;;;;0.10;0.10;;;3.80;99.90;;;;;;4942890;29;20174;-79
2020/12/25 00:32:47;;;;;;;0.20;0.20;;;3.40;99.90;;;;;;4954459;29;20250;-79
2020/12/25 00:35:13;;;;;;;0.10;0.10;;;3.90;99.90;;;;;;4947090;28;20268;-79
2020/12/25 00:37:39;;;;;;;0.10;0.10;;;3.80;99.90;;;;;;4942704;29;20196;-79
2020/12/25 00:40:05;;;;;;;0.10;0.10;;;3.80;99.90;;;;;;4943388;29;20182;-79
2020/12/25 00:42:31;;;;;;;0.00;0.00;;;3.80;99.90;;;;;;4943966;29;20182;-79
2020/12/25 00:44:56;;;;;;;0.10;0.10;;;3.80;99.90;;;;;;4943295;29;20225;-80
2020/12/25 00:47:22;;;;;;;0.10;0.10;;;3.80;99.90;;;;;;4943234;29;20683;-79
2020/12/25 00:49:47;;;;;;;0.10;0.10;;;3.70;99.90;;;;;;4940382;29;20170;-79
2020/12/25 00:52:13;;;;;;;0.10;0.10;;;3.80;99.90;;;;;;4940407;29;20194;-79
2020/12/25 00:54:39;;;;;;;0.80;0.20;;;3.80;99.90;;;;;;4941849;29;20209;-79
2020/12/25 00:57:05;;;;;;;0.10;0.10;;;3.80;99.90;;;;;;4940662;29;20215;-80
2020/12/25 00:59:31;;;;;;;0.30;0.20;;;3.80;99.90;;;;;;4940905;29;20258;-79
2020/12/25 01:01:57;;;;;;;0.20;0.10;;;3.80;99.90;;;;;;4941464;29;20178;-79
2020/12/25 01:04:23;;;;;;;0.10;0.10;;;3.80;99.90;;;;;;4941563;29;20206;-79
2020/12/25 01:06:50;;;;;;;0.13;0.13;;;;;;;;;;4941485;29;20241;-79
2020/12/25 01:09:15;;;;;;;0.23;0.20;;;3.80;99.90;;;;;;4941722;29;20217;-79
2020/12/25 01:11:41;;;;;;;0.10;0.10;;;3.90;99.90;;;;;;4940749;29;20185;-79
2020/12/25 01:14:08;;;;;;;0.10;0.10;;;;;;;;;;4940871;29;20190;-79
2020/12/25 01:16:34;;;;;;;0.10;0.10;;;;;;;;;;4940808;29;20204;-79
2020/12/25 01:19:00;;;;;;;0.10;0.10;;;;;;;;;;4941443;29;20185;-79
2020/12/25 01:21:27;;;;;;;0.40;0.10;;;;;;;;;;4941020;29;20238;-80
2020/12/25 01:23:53;;;;;;;0.10;0.10;;;;;;;;;;4939612;29;20187;-78
2020/12/25 01:26:19;;;;;;;0.13;0.10;;;;;;;;;;4939642;29;20221;-79
2020/12/25 01:28:45;;;;;;;0.10;0.10;;;3.80;99.90;;;;;;4940225;29;20206;-79
2020/12/25 01:31:11;;;;;;;0.20;0.20;;;3.80;99.90;;;;;;4941102;29;20229;-79
2020/12/25 01:33:37;;;;;;;0.43;0.17;;;3.80;99.90;;;;;;4941548;29;20284;-79
2020/12/25 01:36:04;;;;;;;0.13;0.13;;;3.80;99.90;;;;;;4941397;29;20217;-79
2020/12/25 01:38:31;;;;;;;0.10;0.10;;;3.80;99.90;;;;;;4939392;29;20174;-79
2020/12/25 01:40:57;;;;;;;0.07;0.07;;;3.80;99.90;;;;;;4940984;29;20186;-79
2020/12/25 01:43:24;;;;;;;0.10;0.10;;;3.90;99.90;;;;;;4939204;29;20260;-79
2020/12/25 01:45:51;;;;;;;0.10;0.10;;;3.90;99.90;;;;;;4941425;29;20703;-79
2020/12/25 01:48:17;;;;;;;0.10;0.10;;;3.90;99.90;;;;;;4940340;29;20555;-79
2020/12/25 01:50:43;;;;;;;0.10;0.10;;;3.90;99.90;;;;;;4941309;29;20257;-79
2020/12/25 01:53:10;;;;;;;0.17;0.17;;;3.90;99.90;;;;;;4940853;29;20183;-79
2020/12/25 01:55:38;;;;;;;0.23;0.20;;;3.90;99.90;;;;;;4940388;29;20194;-79
2020/12/25 01:58:05;;;;;;;0.10;0.10;;;3.80;99.90;;;;;;4939396;29;20202;-79
2020/12/25 02:00:32;;;;;;;0.10;0.10;;;3.70;99.90;;;;;;4940485;29;20182;-79
2020/12/25 02:02:58;;;;;;;0.23;0.17;;;3.70;99.90;;;;;;4940764;29;20177;-80
2020/12/25 02:05:24;;;;;;;0.40;0.17;;;3.60;99.90;;;;;;4939922;29;20202;-79
2020/12/25 02:07:50;;;;;;;0.13;0.10;;;3.60;99.90;;;;;;4940576;29;20194;-79
2020/12/25 02:10:18;;;;;;;0.20;0.10;;;3.70;99.90;;;;;;4941535;29;20178;-80
2020/12/25 02:12:44;;;;;;;0.13;0.13;;;3.70;99.90;;;;;;4941157;29;20278;-79
2020/12/25 02:15:10;;;;;;;0.20;0.20;;;3.70;99.90;;;;;;4940383;29;20196;-79
2020/12/25 02:17:43;;;;;;;0.53;0.20;;;3.60;99.90;;;;;;4941054;29;20229;-79
2020/12/25 02:20:10;;;;;;;0.10;0.10;;;3.60;99.90;;;;;;4940259;29;20178;-79
2020/12/25 02:22:36;;;;;;;0.20;0.20;;;3.50;99.90;;;;;;4940249;29;20178;-79
2020/12/25 02:25:03;;;;;;;0.10;0.10;;;;;;;;;;4940371;29;20685;-79
2020/12/25 02:27:29;;;;;;;0.20;0.10;;;3.50;99.90;;;;;;4940404;29;20261;-80
2020/12/25 02:29:55;;;;;;;0.20;0.20;;;3.30;99.90;;;;;;4940418;29;20251;-79
2020/12/25 02:32:20;;;;;;;0.13;0.13;;;3.30;99.90;;;;;;4940369;29;20177;-80
2020/12/25 02:34:46;;;;;;;0.20;0.20;;;3.30;99.90;;;;;;4936105;29;20744;-79
2020/12/25 02:37:12;;;;;;;0.30;0.30;;;3.30;99.90;;;;;;4926918;29;20241;-79
2020/12/25 02:39:37;;;;;;;0.20;0.20;;;3.30;99.90;;;;;;4937365;29;20178;-79
2020/12/25 02:42:03;;;;;;;0.23;0.23;;;3.40;99.90;;;;;;4937989;29;20185;-79
2020/12/25 02:44:29;;;;;;;0.20;0.20;;;3.50;99.90;;;;;;4939400;29;20213;-79
2020/12/25 02:46:55;;;;;;;0.40;0.30;;;3.50;99.90;;;;;;4940275;29;20185;-79
2020/12/25 02:49:21;;;;;;;0.20;0.20;;;3.50;99.90;;;;;;4940725;29;20197;-80
2020/12/25 02:51:49;;;;;;;0.20;0.20;;;3.40;99.90;;;;;;4939821;29;20229;-79
2020/12/25 02:54:15;;;;;;;0.30;0.30;;;3.50;99.90;;;;;;4940417;29;20179;-79
2020/12/25 02:56:41;;;;;;;0.33;0.30;;;3.50;99.90;;;;;;4941048;29;20181;-79
2020/12/25 02:59:07;;;;;;;0.30;0.30;;;3.50;99.90;;;;;;4938750;29;20186;-79
2020/12/25 03:01:33;;;;;;;0.40;0.40;;;3.50;99.90;;;;;;4939653;29;20242;-79
2020/12/25 03:03:59;;;;;;;0.20;0.20;;;3.50;99.90;;;;;;4940208;29;20210;-79
2020/12/25 03:06:24;;;;;;;0.20;0.20;;;3.40;99.90;;;;;;4938614;29;20189;-79
2020/12/25 03:08:50;;;;;;;0.37;0.37;;;3.30;99.90;;;;;;4938711;29;20699;-79
2020/12/25 03:11:17;;;;;;;0.40;0.40;;;3.40;99.90;;;;;;4939495;29;20264;-79
2020/12/25 03:13:42;;;;;;;0.40;0.40;;;3.40;99.90;;;;;;4938993;29;20217;-79
2020/12/25 03:16:08;;;;;;;0.40;0.40;;;3.40;99.90;;;;;;4940046;29;20196;-80
2020/12/25 03:18:34;;;;;;;0.40;0.40;;;3.50;99.90;;;;;;4938912;29;20270;-80
2020/12/25 03:20:59;;;;;;;0.30;0.30;;;3.50;99.90;;;;;;4939313;29;20181;-80
2020/12/25 03:23:25;;;;;;;0.30;0.30;;;3.40;99.90;;;;;;4938819;29;20185;-79
2020/12/25 03:25:50;;;;;;;0.40;0.40;;;3.40;99.90;;;;;;4938218;29;20201;-79
2020/12/25 03:28:16;;;;;;;0.37;0.37;;;3.40;99.90;;;;;;4938075;29;20560;-80
2020/12/25 03:30:41;;;;;;;0.40;0.40;;;3.40;99.90;;;;;;4937606;29;20185;-80
2020/12/25 03:33:08;;;;;;;0.43;0.43;;;3.40;99.90;;;;;;4938412;29;20185;-80
2020/12/25 03:35:34;;;;;;;1.33;0.50;;;3.50;99.90;;;;;;4938216;29;20198;-79
2020/12/25 03:38:00;;;;;;;0.40;0.40;;;3.50;99.90;;;;;;4938571;29;20170;-79
2020/12/25 03:40:26;;;;;;;0.50;0.50;;;3.50;99.90;;;;;;4938910;29;20172;-80
2020/12/25 03:42:51;;;;;;;0.30;0.30;;;3.50;99.90;;;;;;4937769;29;20540;-79
2020/12/25 03:45:17;;;;;;;0.30;0.30;;;3.50;99.90;;;;;;4938202;29;20217;-80
2020/12/25 03:47:43;;;;;;;0.40;0.40;;;3.50;99.90;;;;;;4938481;29;20209;-79
2020/12/25 03:50:09;;;;;;;0.40;0.40;;;3.50;99.90;;;;;;4938532;29;20205;-80
2020/12/25 03:52:35;;;;;;;1.40;0.57;;;3.50;99.90;;;;;;4939431;29;20170;-79
2020/12/25 03:55:02;;;;;;;0.40;0.40;;;3.60;99.90;;;;;;4943471;29;20227;-79
2020/12/25 03:57:28;;;;;;;0.40;0.40;;;3.60;99.90;;;;;;4943238;29;20181;-79
2020/12/25 03:59:53;;;;;;;0.50;0.50;;;3.70;99.90;;;;;;4941641;29;20182;-80
2020/12/25 04:02:19;;;;;;;0.63;0.63;;;3.60;99.90;;;;;;4942931;29;20178;-80
2020/12/25 04:04:45;;;;;;;0.40;0.40;;;3.60;99.90;;;;;;4941662;29;20204;-80
2020/12/25 04:07:11;;;;;;;0.50;0.50;;;3.60;99.90;;;;;;4942644;29;20201;-79
2020/12/25 04:09:36;;;;;;;0.50;0.50;;;3.60;99.90;;;;;;4942885;29;20648;-80
2020/12/25 04:12:02;;;;;;;0.60;0.60;;;3.60;99.90;;;;;;4943188;29;20173;-80
2020/12/25 04:14:28;;;;;;;0.70;0.70;;;3.60;99.90;;;;;;4943224;29;20728;-79
2020/12/25 04:16:54;;;;;;;0.60;0.60;;;3.70;99.90;;;;;;4942841;29;20210;-79
2020/12/25 04:19:20;;;;;;;0.77;0.77;;;3.70;99.90;;;;;;4941571;29;20182;-79
2020/12/25 04:21:45;;;;;;;0.60;0.60;;;3.70;99.90;;;;;;4943050;29;20227;-79
2020/12/25 04:24:11;;;;;;;0.80;0.80;;;3.70;99.90;;;;;;4942081;29;20262;-80
2020/12/25 04:26:37;;;;;;;0.70;0.70;;;3.70;99.90;;;;;;4943225;29;20205;-78
2020/12/25 04:29:02;;;;;;;0.70;0.70;;;3.70;99.90;;;;;;4943318;29;20689;-80
2020/12/25 04:31:29;;;;;;;0.90;0.90;;;3.70;99.90;;;;;;4943074;29;20179;-79
2020/12/25 04:33:55;;;;;;;0.60;0.60;;;3.70;99.90;;;;;;4943029;29;20547;-80
2020/12/25 04:36:21;;;;;;;0.80;0.80;;;3.80;99.90;;;;;;4942095;29;20205;-80
2020/12/25 04:38:48;;;;;;;0.70;0.70;;;3.70;99.90;;;;;;4942932;29;20179;-80
2020/12/25 04:41:15;;;;;;;0.67;0.67;;;3.70;99.90;;;;;;4943494;29;20213;-80
2020/12/25 04:43:41;;;;;;;1.00;1.00;;;3.80;99.90;;;;;;4943669;29;20186;-80
2020/12/25 04:46:08;;;;;;;0.90;0.90;;;3.70;99.90;;;;;;4942365;29;20253;-80
2020/12/25 04:48:36;;;;;;;0.90;0.90;;;3.60;99.90;;;;;;4943031;29;20195;-80
2020/12/25 04:51:02;;;;;;;0.80;0.80;;;3.70;99.90;;;;;;4942992;29;20261;-79
2020/12/25 04:53:29;;;;;;;0.80;0.80;;;3.60;99.90;;;;;;4941823;29;20186;-79
2020/12/25 04:55:55;;;;;;;0.90;0.90;;;3.60;99.90;;;;;;4942469;29;20256;-79
2020/12/25 04:58:21;;;;;;;1.27;1.17;;;3.70;99.90;;;;;;4942695;29;20178;-79
2020/12/25 05:01:08;;;;;;;1.10;1.10;;;3.50;99.90;;;;;;4936973;29;20204;-78
2020/12/25 05:03:38;;;;;;;1.33;1.23;;;3.60;99.90;;;;;;4930643;29;20191;-79
2020/12/25 05:06:09;;;;;;;1.30;1.20;;;3.30;99.90;;;;;;4933831;29;20221;-79
2020/12/25 05:08:39;;;;;;;1.17;1.10;;;3.40;99.90;;;;;;4939473;29;20202;-80
2020/12/25 05:11:05;;;;;;;1.20;1.10;;;3.40;99.90;;;;;;4940831;29;20736;-80
2020/12/25 05:13:32;;;;;;;1.33;1.20;;;3.40;99.90;;;;;;4941714;29;20172;-79
2020/12/25 05:15:59;;;;;;;1.50;1.40;;;3.30;99.90;;;;;;4940826;29;20707;-79
2020/12/25 05:18:29;;;;;;;1.30;1.30;;;3.30;99.90;;;;;;4941884;29;20173;-79
2020/12/25 05:20:57;;;;;;;1.20;1.20;;;3.20;99.90;;;;;;4941068;29;20193;-79
2020/12/25 05:23:31;;;;;;;1.63;1.20;;;3.10;99.90;;;;;;4941106;29;20250;-79
2020/12/25 05:26:00;;;;;;;1.50;1.40;;;3.00;99.90;;;;;;4941891;29;20249;-79
2020/12/25 05:28:29;;;;;;;1.60;1.50;;;3.10;99.90;;;;;;4941404;29;20198;-80
2020/12/25 05:30:59;;;;;;;1.50;1.40;;;3.10;99.90;;;;;;4942023;29;20185;-80
2020/12/25 05:33:26;;;;;;;2.10;1.53;;;3.10;99.90;;;;;;4941289;29;20174;-80
2020/12/25 05:35:54;;;;;;;1.60;1.50;;;3.00;99.90;;;;;;4941278;29;20185;-79
2020/12/25 05:38:21;;;;;;;1.60;1.50;;;3.00;99.90;;;;;;4939597;29;20178;-80
2020/12/25 05:40:47;;;;;;;1.47;1.37;;;3.00;99.90;;;;;;4941170;29;20221;-80
2020/12/25 05:43:18;;;;;;;1.60;1.50;;;3.00;99.90;;;;;;4940462;29;20194;-80
2020/12/25 05:45:44;;;;;;;1.70;1.60;;;3.00;99.90;;;;;;4940568;29;20222;-80
2020/12/25 05:48:12;;;;;;;1.37;1.20;;;3.00;99.90;;;;;;4940946;29;20189;-79
2020/12/25 05:50:39;;;;;;;2.10;2.00;;;3.00;99.90;;;;;;4941257;29;20177;-80
2020/12/25 05:53:05;;;;;;;1.63;1.53;;;3.00;99.90;;;;;;4940138;29;20177;-79
2020/12/25 05:55:31;;;;;;;1.70;1.60;;;3.00;99.90;;;;;;4940163;29;20225;-79
2020/12/25 05:57:57;;;;;;;1.73;1.63;;;3.10;99.90;;;;;;4939572;29;20786;-79
2020/12/25 06:00:25;;;;;;;2.33;1.80;;;3.10;99.90;;;;;;4939229;29;20664;-78
2020/12/25 06:02:53;;;;;;;2.00;1.80;;;3.10;99.90;;;;;;4938661;29;20185;-78
2020/12/25 06:05:20;;;;;;;2.10;2.00;;;3.10;99.90;;;;;;4938825;29;20261;-79
2020/12/25 06:07:53;;;;;;;2.13;2.03;;;3.10;99.90;;;;;;4938293;29;20592;-79
2020/12/25 06:10:21;;;;;;;2.03;1.93;;;3.10;99.90;;;;;;4938729;29;20701;-78
2020/12/25 06:12:47;;;;;;;2.40;2.20;;;3.10;99.90;;;;;;4938987;29;20174;-79
2020/12/25 06:15:36;;;;;;;2.10;2.00;;;3.10;99.90;;;;;;4938844;29;20200;-79
2020/12/25 06:18:16;;;;;;;2.00;1.90;;;3.10;99.90;;;;;;4940218;29;20554;-79
2020/12/25 06:21:10;;;;;;;2.00;1.90;;;3.10;99.90;;;;;;4939712;29;20192;-79
2020/12/25 06:23:39;;;;;;;2.23;2.13;;;3.10;99.90;;;;;;4938148;29;20249;-78
2020/12/25 06:26:06;;;;;;;2.27;2.00;;;3.10;99.90;;;;;;4939863;29;20215;-78
2020/12/25 06:28:33;;;;;;;2.10;2.00;;;3.20;99.90;;;;;;4940118;29;20253;-78
2020/12/25 06:30:59;;;;;;;2.20;2.07;;;3.20;99.90;;;;;;4939204;29;20178;-79
2020/12/25 06:33:28;;;;;;;2.30;2.20;;;3.20;99.90;;;;;;4938714;29;20182;-79
2020/12/25 06:35:58;;;;;;;2.17;2.03;;;3.20;99.90;;;;;;4938737;29;20688;-79
2020/12/25 06:38:24;;;;;;;2.40;2.30;;;3.10;99.90;;;;;;4941151;29;20528;-79
2020/12/25 06:40:55;;;;;;;2.20;2.10;;;3.10;99.90;;;;;;4937408;29;20257;-79
2020/12/25 06:43:21;;;;;;;2.57;2.37;;;3.10;99.90;;;;;;4936267;29;20185;-79
2020/12/25 06:46:07;;;;;;;2.10;2.00;;;3.10;99.90;;;;;;4942404;29;20220;-79
2020/12/25 06:48:34;;;;;;;3.10;2.90;;;3.20;99.90;;;;;;4970615;28;20208;-79
2020/12/25 06:51:01;;;;;;;3.03;2.83;;;3.30;99.90;;;;;;4957082;28;20586;-79
2020/12/25 06:53:42;;;;;;;3.40;3.10;;;3.20;99.90;;;;;;4957356;28;20165;-79
2020/12/25 06:56:13;;;;;;;3.07;2.87;;;3.10;99.90;;;;;;4937174;29;20237;-79
2020/12/25 06:58:53;;;;;;;3.00;2.80;;;3.20;99.90;;;;;;4945942;29;20185;-79
2020/12/25 07:01:37;;;;;;;3.23;3.03;;;3.20;99.90;;;;;;4940684;28;20173;-78
2020/12/25 07:04:04;;;;;;;2.53;2.33;;;3.30;99.90;;;;;;4937437;29;20237;-80
2020/12/25 07:06:31;;;;;;;2.10;2.00;;;3.30;99.90;;;;;;4938427;29;20197;-79
2020/12/25 07:09:10;;;;;;;2.73;2.53;;;3.30;99.90;;;;;;4938365;29;20227;-79
2020/12/25 07:11:37;;;;;;;2.30;2.20;;;3.40;99.90;;;;;;4938676;29;20235;-79
2020/12/25 07:14:04;;;;;;;2.37;2.20;;;3.40;99.90;;;;;;4948791;28;20256;-78
2020/12/25 07:16:31;;;;;;;3.37;2.27;;;3.40;99.90;;;;;;4941872;28;20174;-80
2020/12/25 07:18:56;;;;;;;2.10;2.00;;;3.40;99.90;;;;;;4938399;29;20209;-78
2020/12/25 07:21:23;;;;;;;2.00;1.90;;;3.40;99.90;;;;;;4939626;29;20188;-79
2020/12/25 07:23:49;;;;;;;1.63;1.53;;;3.40;99.90;;;;;;4951581;29;20194;-77
2020/12/25 07:26:15;;;;;;;1.60;1.50;;;3.40;99.90;;;;;;4939661;29;20202;-79
2020/12/25 07:28:41;;;;;;;1.73;1.63;;;3.50;99.90;;;;;;4944633;29;20199;-79
2020/12/25 07:31:08;;;;;;;1.13;1.13;;;3.50;99.90;;;;;;4945033;29;20200;-78
2020/12/25 07:33:34;;;;;;;1.50;1.40;;;3.50;99.90;;;;;;4944335;29;20660;-79
2020/12/25 07:36:00;;;;;;;1.93;1.17;;;3.40;99.90;;;;;;4943787;29;20276;-78
2020/12/25 07:38:26;;;;;;;1.23;1.13;;;3.50;99.90;;;;;;4957907;28;20231;-79
2020/12/25 07:40:52;;;;;;;1.00;0.90;;;3.50;99.90;;;;;;4943479;29;20553;-79
2020/12/25 07:43:18;;;;;;;0.90;0.90;;;3.50;99.90;;;;;;4945015;29;20604;-79
2020/12/25 07:45:46;;;;;;;1.03;0.93;;;3.60;99.90;;;;;;4927729;29;20229;-79
2020/12/25 07:48:12;;;;;;;2.27;0.80;;;3.60;99.90;;;;;;4944252;29;20733;-79
2020/12/25 07:50:40;;;;;;;1.07;0.97;;;3.60;99.90;;;;;;4944537;29;20257;-79
2020/12/25 07:53:16;;;;;;;0.80;0.80;;;3.60;99.90;;;;;;4944915;29;20177;-78
2020/12/25 07:55:49;;;;;;;1.40;1.30;;;3.60;99.90;;;;;;4945455;29;20228;-79
2020/12/25 07:58:18;;;;;;;1.80;1.40;;;3.60;99.90;;;;;;4945054;29;20209;-78
2020/12/25 08:00:45;;;;;;;1.60;1.47;;;3.60;99.90;;;;;;4944944;29;20661;-79
2020/12/25 08:03:12;;;;;;;1.17;1.07;;;4.70;99.90;;;;;;4943519;29;20183;-78
2020/12/25 08:05:38;;;;;;;1.13;1.07;;;3.80;99.90;;;;;;4944362;29;20252;-79
2020/12/25 08:08:05;;;;;;;0.83;0.70;;;3.70;99.90;;;;;;4944006;29;20197;-79
2020/12/25 08:10:33;;;;;;;0.70;0.60;;;3.70;99.90;;;;;;4945160;29;20257;-79
2020/12/25 08:12:59;;;;;;;0.90;0.77;;;3.60;99.90;;;;;;4944300;29;20208;-79
2020/12/25 08:15:27;;;;;;;0.70;0.70;;;3.60;99.90;;;;;;4950836;29;20571;-78
2020/12/25 08:17:59;;;;;;;0.50;0.50;;;3.60;99.90;;;;;;4949170;28;20189;-79
2020/12/25 08:20:25;;;;;;;0.63;0.63;;;3.80;99.90;;;;;;4944217;29;20544;-78
2020/12/25 08:22:59;;;;;;;1.67;0.70;;;3.60;99.90;;;;;;4944008;29;20641;-79
2020/12/25 08:25:27;;;;;;;0.60;0.60;;;4.00;99.90;;;;;;4943583;28;20203;-79
2020/12/25 08:27:55;;;;;;;1.13;1.00;;;3.60;99.90;;;;;;4944125;29;20198;-79
2020/12/25 08:30:21;;;;;;;0.80;0.80;;;3.60;99.90;;;;;;4941816;29;20170;-78
2020/12/25 08:32:49;;;;;;;0.90;0.90;;;3.60;99.90;;;;;;4953955;28;20188;-79
2020/12/25 08:35:17;;;;;;;0.90;0.90;;;3.60;99.90;;;;;;4942400;29;20226;-79
2020/12/25 08:38:03;;;;;;;0.90;0.90;;;3.60;99.90;;;;;;4952583;28;20177;-80
2020/12/25 08:40:39;;;;;;;1.30;1.20;;;3.80;99.90;;;;;;4955406;29;20182;-79
2020/12/25 08:43:09;;;;;;;0.90;0.90;;;3.70;99.90;;;;;;4941800;29;20183;-78
2020/12/25 08:45:36;;;;;;;0.67;0.67;;;3.80;99.90;;;;;;4940143;29;20214;-79
2020/12/25 08:48:10;;;;;;;0.77;0.70;;;3.80;99.90;;;;;;4941780;29;20311;-79
2020/12/25 08:50:38;;;;;;;1.10;1.00;;;3.80;99.90;;;;;;4942138;29;20173;-79
2020/12/25 08:53:21;;;;;;;0.80;0.80;;;3.80;99.90;;;;;;4943467;29;20178;-79
2020/12/25 08:55:48;;;;;;;0.73;0.73;;;4.10;99.90;;;;;;4938364;29;20194;-78
2020/12/25 08:58:19;;;;;;;1.40;1.00;;;3.90;99.90;;;;;;4941223;29;20190;-79
2020/12/25 09:00:57;;;;;;;1.00;1.00;;;3.90;99.90;;;;;;4939146;29;20768;-78
2020/12/25 09:03:24;;;;;;;0.70;0.70;;;3.90;99.90;;;;;;4929086;29;20186;-80
2020/12/25 09:05:49;;;;;;;1.10;1.00;;;4.00;99.90;;;;;;4930347;29;20211;-79
2020/12/25 09:08:16;;;;;;;1.27;0.90;;;4.00;99.90;;;;;;4931911;29;20193;-78
2020/12/25 09:10:42;;;;;;;0.70;0.70;;;3.90;99.90;;;;;;4948329;28;20234;-79
2020/12/25 09:13:09;;;;;;;0.60;0.60;;;3.90;99.90;;;;;;4941244;29;20665;-79
2020/12/25 09:15:35;;;;;;;0.60;0.60;;;3.90;99.90;;;;;;4947687;29;20193;-78
2020/12/25 09:18:01;;;;;;;0.63;0.50;;;4.10;99.90;;;;;;4944951;28;20186;-79
2020/12/25 09:20:27;;;;;;;0.50;0.50;;;3.90;99.90;;;;;;4940402;29;20181;-79
2020/12/25 09:22:53;;;;;;;0.73;0.60;;;4.30;99.90;;;;;;4938451;29;20273;-79
2020/12/25 09:25:19;;;;;;;0.70;0.70;;;4.20;99.90;;;;;;4922121;29;20233;-79
2020/12/25 09:27:45;;;;;;;1.00;0.90;;;3.90;99.90;;;;;;4938209;29;20269;-79
2020/12/25 09:30:11;;;;;;;1.10;1.00;;;3.90;99.90;;;;;;4940496;29;20194;-79
2020/12/25 09:32:36;;;;;;;0.83;0.70;;;3.90;99.90;;;;;;4940172;29;20173;-79
2020/12/25 09:35:02;;;;;;;0.60;0.60;;;3.90;99.90;;;;;;4940959;29;20672;-78
2020/12/25 09:37:31;;;;;;;1.10;0.70;;;4.00;99.90;;;;;;4953080;28;20559;-79
2020/12/25 09:39:57;;;;;;;0.97;0.80;;;4.00;99.90;;;;;;4939724;29;20600;-78
2020/12/25 09:42:23;;;;;;;0.93;0.90;;;3.90;99.90;;;;;;4941136;29;20190;-79
2020/12/25 09:44:48;;;;;;;0.80;0.80;;;4.00;99.90;;;;;;4939951;29;20223;-79
2020/12/25 09:47:18;;;;;;;0.90;0.90;;;4.00;99.90;;;;;;4943570;29;20170;-79
2020/12/25 09:49:44;;;;;;;0.70;0.70;;;4.00;99.90;;;;;;4958495;28;20165;-79
2020/12/25 09:52:10;;;;;;;0.93;0.80;;;4.10;99.90;;;;;;4943711;29;20265;-79
2020/12/25 09:54:35;;;;;;;0.60;0.60;;;4.10;99.90;;;;;;4940167;29;20229;-79
2020/12/25 09:57:04;;;;;;;0.80;0.73;;;3.90;99.90;;;;;;4940570;29;20178;-79
2020/12/25 09:59:30;;;;;;;0.73;0.73;;;4.20;99.90;;;;;;4940852;29;20200;-78
2020/12/25 10:01:56;;;;;;;0.80;0.80;;;4.10;99.90;;;;;;4949296;29;20177;-79
2020/12/25 10:04:22;;;;;;;1.10;1.03;;;4.00;99.90;;;;;;4945487;28;20202;-79
2020/12/25 10:06:47;;;;;;;0.80;0.80;;;4.00;99.90;;;;;;4939124;29;20182;-78
2020/12/25 10:09:14;;;;;;;0.70;0.70;;;4.20;99.90;;;;;;4939585;29;20201;-79
2020/12/25 10:11:40;;;;;;;1.10;1.00;;;4.40;99.90;;;;;;4940513;29;20186;-79
2020/12/25 10:14:08;;;;;;;1.30;1.20;;;4.00;99.90;;;;;;4939991;29;20174;-79
2020/12/25 10:16:36;;;;;;;1.47;1.37;;;4.00;99.90;;;;;;4939654;29;20257;-79
2020/12/25 10:19:02;;;;;;;1.47;1.37;;;4.10;99.90;;;;;;4938802;29;20555;-79
2020/12/25 10:21:28;;;;;;;2.73;2.07;;;4.00;99.90;;;;;;4940359;29;20195;-78
2020/12/25 10:23:56;;;;;;;4.00;3.60;;;4.30;99.90;;;;;;4950830;28;20266;-79
2020/12/25 10:26:24;;;;;;;1.17;1.07;;;4.00;99.90;;;;;;4938595;29;20211;-79
2020/12/25 10:28:49;;;;;;;3.43;1.10;;;4.40;99.90;;;;;;4938171;29;20197;-79
2020/12/25 10:31:15;;;;;;;1.30;1.20;;;4.00;99.90;;;;;;4939833;29;20550;-79
2020/12/25 10:33:41;;;;;;;1.40;1.30;;;4.00;99.90;;;;;;4937703;29;20210;-79
2020/12/25 10:36:06;;;;;;;1.20;1.10;;;4.10;99.90;;;;;;4938720;29;20729;-79
2020/12/25 10:38:34;;;;;;;1.20;1.00;;;4.20;99.90;;;;;;4939354;29;20213;-80
2020/12/25 10:41:00;;;;;;;1.20;1.10;;;4.10;99.90;;;;;;4938860;29;20194;-79
2020/12/25 10:43:26;;;;;;;1.40;1.30;;;4.30;99.90;;;;;;4938041;29;20265;-79
2020/12/25 10:45:51;;;;;;;1.80;1.70;;;4.60;99.90;;;;;;4938063;29;20260;-79
2020/12/25 10:48:17;;;;;;;2.47;2.10;;;4.10;99.90;;;;;;4938707;29;20284;-79
2020/12/25 10:50:46;;;;;;;2.87;2.63;;;4.10;99.90;;;;;;4942639;29;20290;-79
2020/12/25 10:53:12;;;;;;;2.10;1.90;;;4.10;99.90;;;;;;4944253;29;20184;-77
2020/12/25 10:55:38;;;;;;;2.60;2.40;;;4.10;99.90;;;;;;4939440;29;20260;-79
2020/12/25 10:58:04;;;;;;;2.07;1.87;;;4.10;99.90;;;;;;4940246;29;20712;-80
2020/12/25 11:00:35;;;;;;;1.87;1.73;;;4.20;99.90;;;;;;4928453;29;20461;-79
2020/12/25 11:03:01;;;;;;;2.53;2.33;;;4.20;99.90;;;;;;4940648;28;20182;-79
2020/12/25 11:05:26;;;;;;;2.60;2.20;;;4.40;99.90;;;;;;4930042;29;20208;-79
2020/12/25 11:07:54;;;;;;;2.73;2.37;;;4.50;99.90;;;;;;4941275;29;20229;-79
2020/12/25 11:10:20;;;;;;;1.57;1.47;;;4.10;99.90;;;;;;4942700;28;20178;-79
2020/12/25 11:12:45;;;;;;;2.50;2.30;;;4.20;99.90;;;;;;4927715;29;20651;-80
2020/12/25 11:15:11;;;;;;;1.80;1.70;;;4.20;99.90;;;;;;4922329;29;20196;-80
2020/12/25 11:17:37;;;;;;;1.73;1.63;;;4.30;99.90;;;;;;4941285;28;20179;-78
2020/12/25 11:20:02;;;;;;;1.80;1.70;;;4.50;99.90;;;;;;4931722;29;20566;-80
2020/12/25 11:22:30;;;;;;;2.37;1.70;;;4.30;99.90;;;;;;4924000;29;20208;-79
2020/12/25 11:24:55;;;;;;;1.83;1.50;;;4.30;99.90;;;;;;4936525;29;20206;-79
2020/12/25 11:27:21;;;;;;;1.77;1.40;;;4.20;99.90;;;;;;4936790;29;20197;-79
2020/12/25 11:29:46;;;;;;;1.70;1.60;;;4.30;99.90;;;;;;4938639;29;20223;-79
2020/12/25 11:32:12;;;;;;;2.40;2.00;;;4.40;99.90;;;;;;4940668;29;20193;-79
2020/12/25 11:34:38;;;;;;;2.17;1.60;;;4.30;99.90;;;;;;4939380;29;20198;-80
2020/12/25 11:37:03;;;;;;;2.20;2.00;;;4.20;99.90;;;;;;4935230;29;20173;-79
2020/12/25 11:39:29;;;;;;;2.67;2.10;;;4.30;99.90;;;;;;4933859;29;20187;-79
2020/12/25 11:41:55;;;;;;;2.60;2.40;;;4.30;99.90;;;;;;4936653;29;20265;-79
2020/12/25 11:44:20;;;;;;;2.13;2.03;;;4.30;99.90;;;;;;4938506;29;20202;-79
2020/12/25 11:46:46;;;;;;;2.13;1.93;;;4.30;99.90;;;;;;4939015;29;20182;-79
2020/12/25 11:49:12;;;;;;;1.87;1.77;;;4.30;99.90;;;;;;4938519;29;20209;-79
2020/12/25 11:51:38;;;;;;;2.20;2.00;;;4.60;99.90;;;;;;4937833;29;20181;-79
2020/12/25 11:54:03;;;;;;;3.00;2.63;;;4.40;99.90;;;;;;4937766;29;20171;-79
2020/12/25 11:56:29;;;;;;;2.73;2.53;;;4.40;99.90;;;;;;4936000;29;20237;-79
2020/12/25 11:59:02;;;;;;;2.20;1.80;;;4.60;99.90;;;;;;4937617;29;20189;-79
2020/12/25 12:01:28;;;;;;;2.67;2.20;;;4.40;99.90;;;;;;4940079;29;20184;-79
2020/12/25 12:03:54;;;;;;;3.70;2.70;;;4.50;99.90;;;;;;4939945;29;20184;-79
2020/12/25 12:06:22;;;;;;;2.13;1.97;;;4.80;99.90;;;;;;4952287;29;20296;-78
2020/12/25 12:08:47;;;;;;;2.10;1.90;;;4.60;99.90;;;;;;4939231;29;20203;-79
2020/12/25 12:11:13;;;;;;;1.90;1.80;;;4.70;99.90;;;;;;4938959;29;20202;-79
2020/12/25 12:13:39;;;;;;;1.80;1.70;;;4.60;99.90;;;;;;4937670;29;20205;-80
2020/12/25 12:16:15;;;;;;;1.80;1.70;;;4.60;99.90;;;;;;4940178;29;20803;-80
2020/12/25 12:18:42;;;;;;;1.93;1.83;;;4.60;99.90;;;;;;4939021;29;20205;-79
2020/12/25 12:21:09;;;;;;;1.70;1.60;;;4.80;99.90;;;;;;4940888;29;20549;-80
2020/12/25 12:23:35;;;;;;;2.83;2.30;;;5.00;99.90;;;;;;4939710;29;20186;-80
2020/12/25 12:26:01;;;;;;;3.43;3.03;;;4.90;99.90;;;;;;4937714;29;20634;-81
2020/12/25 12:28:27;;;;;;;2.07;1.87;;;4.50;99.90;;;;;;4939726;29;20225;-79
2020/12/25 12:30:53;;;;;;;2.53;1.73;;;4.50;99.90;;;;;;4939498;29;20197;-80
2020/12/25 12:33:19;;;;;;;6.43;4.40;;;4.50;99.90;;;;;;4939907;29;20182;-79
2020/12/25 12:35:45;;;;;;;3.20;2.90;;;4.90;99.90;;;;;;4939532;29;20198;-80
2020/12/25 12:38:10;;;;;;;3.60;2.93;;;5.10;99.90;;;;;;4938828;29;20211;-79
2020/12/25 12:40:36;;;;;;;6.03;4.10;;;4.60;99.90;;;;;;4939136;29;20221;-80
2020/12/25 12:43:02;;;;;;;4.13;2.90;;;4.50;99.90;;;;;;4939505;29;20222;-80
2020/12/25 12:45:27;;;;;;;2.40;2.10;;;4.50;99.90;;;;;;4938868;29;20228;-80
2020/12/25 12:47:53;;;;;;;3.23;2.73;;;4.50;99.90;;;;;;4938009;29;20198;-80
2020/12/25 12:50:19;;;;;;;2.93;2.63;;;4.60;99.90;;;;;;4938521;29;20181;-80
2020/12/25 12:52:45;;;;;;;2.40;2.20;;;4.60;99.90;;;;;;4939438;29;20170;-80
2020/12/25 12:55:10;;;;;;;1.43;1.33;;;4.80;99.90;;;;;;4937982;29;20198;-80
2020/12/25 12:57:36;;;;;;;1.37;1.27;;;4.50;99.90;;;;;;4938559;29;20187;-80
2020/12/25 13:00:04;;;;;;;2.93;2.43;;;4.90;99.90;;;;;;4939910;29;20182;-81